sensor_id;sensor_type;location;lat;lon;timestamp;P1;durP1;ratioP1;P2;durP2;ratioP2
48526;SDS011;34317;51.660;5.824;2023-03-01T00:01:15;7.53;;;4.30;;
48526;SDS011;34317;51.660;5.824;2023-03-01T00:03:44;7.50;;;3.90;;
48526;SDS011;34317;51.660;5.824;2023-03-01T00:06:12;9.60;;;4.53;;
48526;SDS011;34317;51.660;5.824;2023-03-01T00:08:40;6.72;;;3.88;;
48526;SDS011;34317;51.660;5.824;2023-03-01T00:11:09;7.93;;;3.92;;
48526;SDS011;34317;51.660;5.824;2023-03-01T00:13:39;9.38;;;4.18;;
48526;SDS011;34317;51.660;5.824;2023-03-01T00:16:09;7.90;;;3.90;;
48526;SDS011;34317;51.660;5.824;2023-03-01T00:18:39;9.60;;;4.10;;
48526;SDS011;34317;51.660;5.824;2023-03-01T00:21:07;9.98;;;4.20;;
48526;SDS011;34317;51.660;5.824;2023-03-01T00:23:34;7.40;;;3.88;;
48526;SDS011;34317;51.660;5.824;2023-03-01T00:26:05;7.68;;;4.20;;
48526;SDS011;34317;51.660;5.824;2023-03-01T00:28:34;6.18;;;3.80;;
48526;SDS011;34317;51.660;5.824;2023-03-01T00:31:03;6.43;;;3.80;;
48526;SDS011;34317;51.660;5.824;2023-03-01T00:33:31;7.07;;;3.90;;
48526;SDS011;34317;51.660;5.824;2023-03-01T00:35:59;6.47;;;3.92;;
48526;SDS011;34317;51.660;5.824;2023-03-01T00:38:26;9.13;;;4.05;;
48526;SDS011;34317;51.660;5.824;2023-03-01T00:40:53;7.57;;;3.92;;
48526;SDS011;34317;51.660;5.824;2023-03-01T00:43:21;8.07;;;4.03;;
48526;SDS011;34317;51.660;5.824;2023-03-01T00:45:48;6.82;;;3.88;;
48526;SDS011;34317;51.660;5.824;2023-03-01T00:48:16;6.82;;;3.80;;
48526;SDS011;34317;51.660;5.824;2023-03-01T00:50:44;9.23;;;4.05;;
48526;SDS011;34317;51.660;5.824;2023-03-01T00:53:11;7.82;;;4.13;;
48526;SDS011;34317;51.660;5.824;2023-03-01T00:55:38;7.55;;;4.10;;
48526;SDS011;34317;51.660;5.824;2023-03-01T00:58:05;7.65;;;3.85;;
48526;SDS011;34317;51.660;5.824;2023-03-01T01:00:32;7.97;;;4.10;;
48526;SDS011;34317;51.660;5.824;2023-03-01T01:03:00;6.43;;;3.95;;
48526;SDS011;34317;51.660;5.824;2023-03-01T01:05:27;8.68;;;4.30;;
48526;SDS011;34317;51.660;5.824;2023-03-01T01:07:54;8.73;;;4.00;;
48526;SDS011;34317;51.660;5.824;2023-03-01T01:10:21;6.55;;;3.78;;
48526;SDS011;34317;51.660;5.824;2023-03-01T01:12:48;6.32;;;4.10;;
48526;SDS011;34317;51.660;5.824;2023-03-01T01:15:16;6.43;;;3.78;;
48526;SDS011;34317;51.660;5.824;2023-03-01T01:17:43;8.60;;;4.25;;
48526;SDS011;34317;51.660;5.824;2023-03-01T01:20:10;9.27;;;4.18;;
48526;SDS011;34317;51.660;5.824;2023-03-01T01:22:38;8.55;;;4.53;;
48526;SDS011;34317;51.660;5.824;2023-03-01T01:25:05;7.20;;;4.00;;
48526;SDS011;34317;51.660;5.824;2023-03-01T01:27:33;7.55;;;3.80;;
48526;SDS011;34317;51.660;5.824;2023-03-01T01:30:00;6.80;;;4.28;;
48526;SDS011;34317;51.660;5.824;2023-03-01T01:32:28;7.53;;;4.47;;
48526;SDS011;34317;51.660;5.824;2023-03-01T01:34:55;6.72;;;4.00;;
48526;SDS011;34317;51.660;5.824;2023-03-01T01:37:22;6.68;;;3.75;;
48526;SDS011;34317;51.660;5.824;2023-03-01T01:39:49;7.70;;;4.25;;
48526;SDS011;34317;51.660;5.824;2023-03-01T01:42:17;7.32;;;4.18;;
48526;SDS011;34317;51.660;5.824;2023-03-01T01:44:45;8.93;;;4.40;;
48526;SDS011;34317;51.660;5.824;2023-03-01T01:47:20;8.23;;;4.10;;
48526;SDS011;34317;51.660;5.824;2023-03-01T01:49:55;6.85;;;4.28;;
48526;SDS011;34317;51.660;5.824;2023-03-01T01:52:24;8.70;;;4.10;;
48526;SDS011;34317;51.660;5.824;2023-03-01T01:54:55;8.25;;;4.35;;
48526;SDS011;34317;51.660;5.824;2023-03-01T01:57:31;7.03;;;3.95;;
48526;SDS011;34317;51.660;5.824;2023-03-01T02:00:07;6.90;;;3.85;;
48526;SDS011;34317;51.660;5.824;2023-03-01T02:02:40;6.43;;;4.18;;
48526;SDS011;34317;51.660;5.824;2023-03-01T02:05:24;9.63;;;4.55;;
48526;SDS011;34317;51.660;5.824;2023-03-01T02:07:59;9.05;;;4.47;;
48526;SDS011;34317;51.660;5.824;2023-03-01T02:10:27;10.40;;;4.88;;
48526;SDS011;34317;51.660;5.824;2023-03-01T02:12:55;12.00;;;4.90;;
48526;SDS011;34317;51.660;5.824;2023-03-01T02:15:23;9.05;;;4.60;;
48526;SDS011;34317;51.660;5.824;2023-03-01T02:17:51;11.02;;;5.15;;
48526;SDS011;34317;51.660;5.824;2023-03-01T02:20:25;9.23;;;4.90;;
48526;SDS011;34317;51.660;5.824;2023-03-01T02:22:58;8.95;;;4.78;;
48526;SDS011;34317;51.660;5.824;2023-03-01T02:30:42;8.55;;;4.65;;
48526;SDS011;34317;51.660;5.824;2023-03-01T02:33:31;10.15;;;4.82;;
48526;SDS011;34317;51.660;5.824;2023-03-01T02:36:09;8.57;;;4.50;;
48526;SDS011;34317;51.660;5.824;2023-03-01T02:38:41;8.88;;;4.78;;
48526;SDS011;34317;51.660;5.824;2023-03-01T02:41:09;6.50;;;4.22;;
48526;SDS011;34317;51.660;5.824;2023-03-01T02:43:40;8.18;;;4.85;;
48526;SDS011;34317;51.660;5.824;2023-03-01T02:46:12;8.57;;;4.20;;
48526;SDS011;34317;51.660;5.824;2023-03-01T02:48:44;7.20;;;4.53;;
48526;SDS011;34317;51.660;5.824;2023-03-01T02:51:17;9.70;;;4.35;;
48526;SDS011;34317;51.660;5.824;2023-03-01T02:56:43;7.43;;;4.30;;
48526;SDS011;34317;51.660;5.824;2023-03-01T02:59:18;8.95;;;4.82;;
48526;SDS011;34317;51.660;5.824;2023-03-01T03:01:49;8.43;;;4.45;;
48526;SDS011;34317;51.660;5.824;2023-03-01T03:04:18;7.00;;;4.57;;
48526;SDS011;34317;51.660;5.824;2023-03-01T03:06:49;9.43;;;4.65;;
48526;SDS011;34317;51.660;5.824;2023-03-01T03:09:17;9.90;;;4.82;;
48526;SDS011;34317;51.660;5.824;2023-03-01T03:11:45;8.82;;;4.25;;
48526;SDS011;34317;51.660;5.824;2023-03-01T03:14:14;9.52;;;4.70;;
48526;SDS011;34317;51.660;5.824;2023-03-01T03:16:46;7.38;;;4.30;;
48526;SDS011;34317;51.660;5.824;2023-03-01T03:19:17;10.15;;;4.80;;
48526;SDS011;34317;51.660;5.824;2023-03-01T03:21:45;8.23;;;4.72;;
48526;SDS011;34317;51.660;5.824;2023-03-01T03:24:13;8.48;;;4.68;;
48526;SDS011;34317;51.660;5.824;2023-03-01T03:26:40;9.93;;;4.78;;
48526;SDS011;34317;51.660;5.824;2023-03-01T03:29:07;8.15;;;4.90;;
48526;SDS011;34317;51.660;5.824;2023-03-01T03:31:34;9.43;;;4.57;;
48526;SDS011;34317;51.660;5.824;2023-03-01T03:34:01;8.23;;;4.70;;
48526;SDS011;34317;51.660;5.824;2023-03-01T03:36:28;9.18;;;5.15;;
48526;SDS011;34317;51.660;5.824;2023-03-01T03:38:56;10.30;;;4.30;;
48526;SDS011;34317;51.660;5.824;2023-03-01T03:41:23;7.93;;;4.25;;
48526;SDS011;34317;51.660;5.824;2023-03-01T03:43:50;10.20;;;5.30;;
48526;SDS011;34317;51.660;5.824;2023-03-01T03:46:17;8.32;;;4.75;;
48526;SDS011;34317;51.660;5.824;2023-03-01T03:48:44;8.00;;;4.80;;
48526;SDS011;34317;51.660;5.824;2023-03-01T03:51:13;11.77;;;5.60;;
48526;SDS011;34317;51.660;5.824;2023-03-01T03:53:41;11.68;;;5.30;;
48526;SDS011;34317;51.660;5.824;2023-03-01T03:56:09;12.45;;;4.97;;
48526;SDS011;34317;51.660;5.824;2023-03-01T03:58:37;10.50;;;4.85;;
48526;SDS011;34317;51.660;5.824;2023-03-01T04:01:04;9.32;;;5.18;;
48526;SDS011;34317;51.660;5.824;2023-03-01T04:03:33;9.63;;;5.03;;
48526;SDS011;34317;51.660;5.824;2023-03-01T04:06:01;9.95;;;5.28;;
48526;SDS011;34317;51.660;5.824;2023-03-01T04:08:29;9.77;;;5.13;;
48526;SDS011;34317;51.660;5.824;2023-03-01T04:10:57;11.30;;;5.47;;
48526;SDS011;34317;51.660;5.824;2023-03-01T04:13:28;9.77;;;5.00;;
48526;SDS011;34317;51.660;5.824;2023-03-01T04:15:55;11.27;;;5.70;;
48526;SDS011;34317;51.660;5.824;2023-03-01T04:18:23;10.07;;;5.35;;
48526;SDS011;34317;51.660;5.824;2023-03-01T04:20:52;11.63;;;5.30;;
48526;SDS011;34317;51.660;5.824;2023-03-01T04:23:22;10.18;;;4.95;;
48526;SDS011;34317;51.660;5.824;2023-03-01T04:25:50;10.35;;;5.40;;
48526;SDS011;34317;51.660;5.824;2023-03-01T04:28:23;11.10;;;5.47;;
48526;SDS011;34317;51.660;5.824;2023-03-01T04:31:02;9.52;;;5.38;;
48526;SDS011;34317;51.660;5.824;2023-03-01T04:33:40;9.77;;;5.35;;
48526;SDS011;34317;51.660;5.824;2023-03-01T04:36:14;9.73;;;5.20;;
48526;SDS011;34317;51.660;5.824;2023-03-01T04:38:42;9.15;;;5.50;;
48526;SDS011;34317;51.660;5.824;2023-03-01T04:41:14;8.98;;;4.78;;
48526;SDS011;34317;51.660;5.824;2023-03-01T04:43:44;9.02;;;5.28;;
48526;SDS011;34317;51.660;5.824;2023-03-01T04:46:12;8.77;;;4.97;;
48526;SDS011;34317;51.660;5.824;2023-03-01T04:48:42;11.40;;;5.25;;
48526;SDS011;34317;51.660;5.824;2023-03-01T04:51:11;10.45;;;5.38;;
48526;SDS011;34317;51.660;5.824;2023-03-01T04:53:42;9.25;;;5.07;;
48526;SDS011;34317;51.660;5.824;2023-03-01T04:56:11;10.07;;;5.70;;
48526;SDS011;34317;51.660;5.824;2023-03-01T04:58:40;10.10;;;5.65;;
48526;SDS011;34317;51.660;5.824;2023-03-01T05:01:09;10.43;;;5.63;;
48526;SDS011;34317;51.660;5.824;2023-03-01T05:03:43;10.75;;;6.00;;
48526;SDS011;34317;51.660;5.824;2023-03-01T05:06:12;10.73;;;5.40;;
48526;SDS011;34317;51.660;5.824;2023-03-01T05:08:40;11.30;;;5.68;;
48526;SDS011;34317;51.660;5.824;2023-03-01T05:11:08;10.95;;;5.53;;
48526;SDS011;34317;51.660;5.824;2023-03-01T05:13:36;10.38;;;5.32;;
48526;SDS011;34317;51.660;5.824;2023-03-01T05:16:05;11.80;;;5.57;;
48526;SDS011;34317;51.660;5.824;2023-03-01T05:18:33;10.50;;;5.70;;
48526;SDS011;34317;51.660;5.824;2023-03-01T05:21:02;11.60;;;5.45;;
48526;SDS011;34317;51.660;5.824;2023-03-01T05:23:32;9.20;;;5.32;;
48526;SDS011;34317;51.660;5.824;2023-03-01T05:26:00;10.35;;;5.40;;
48526;SDS011;34317;51.660;5.824;2023-03-01T05:28:29;10.45;;;5.70;;
48526;SDS011;34317;51.660;5.824;2023-03-01T05:30:56;11.40;;;5.68;;
48526;SDS011;34317;51.660;5.824;2023-03-01T05:33:24;11.23;;;5.22;;
48526;SDS011;34317;51.660;5.824;2023-03-01T05:35:53;9.63;;;4.80;;
48526;SDS011;34317;51.660;5.824;2023-03-01T05:38:21;9.05;;;5.38;;
48526;SDS011;34317;51.660;5.824;2023-03-01T05:40:49;9.50;;;5.28;;
48526;SDS011;34317;51.660;5.824;2023-03-01T05:43:16;8.75;;;5.05;;
48526;SDS011;34317;51.660;5.824;2023-03-01T05:45:44;13.55;;;5.53;;
48526;SDS011;34317;51.660;5.824;2023-03-01T05:48:11;10.00;;;5.18;;
48526;SDS011;34317;51.660;5.824;2023-03-01T05:50:43;10.40;;;5.55;;
48526;SDS011;34317;51.660;5.824;2023-03-01T05:55:40;11.10;;;5.50;;
48526;SDS011;34317;51.660;5.824;2023-03-01T05:58:09;10.05;;;5.22;;
48526;SDS011;34317;51.660;5.824;2023-03-01T06:00:38;10.02;;;5.30;;
48526;SDS011;34317;51.660;5.824;2023-03-01T06:03:05;9.60;;;5.22;;
48526;SDS011;34317;51.660;5.824;2023-03-01T06:05:32;10.93;;;5.47;;
48526;SDS011;34317;51.660;5.824;2023-03-01T06:07:59;8.82;;;5.45;;
48526;SDS011;34317;51.660;5.824;2023-03-01T06:10:27;11.80;;;5.10;;
48526;SDS011;34317;51.660;5.824;2023-03-01T06:12:55;12.27;;;5.93;;
48526;SDS011;34317;51.660;5.824;2023-03-01T06:15:23;9.70;;;5.65;;
48526;SDS011;34317;51.660;5.824;2023-03-01T06:17:50;10.60;;;6.03;;
48526;SDS011;34317;51.660;5.824;2023-03-01T06:20:19;11.43;;;7.03;;
48526;SDS011;34317;51.660;5.824;2023-03-01T06:22:48;14.00;;;7.22;;
48526;SDS011;34317;51.660;5.824;2023-03-01T06:25:16;14.82;;;7.40;;
48526;SDS011;34317;51.660;5.824;2023-03-01T06:27:46;11.93;;;6.80;;
48526;SDS011;34317;51.660;5.824;2023-03-01T06:30:15;11.00;;;6.68;;
48526;SDS011;34317;51.660;5.824;2023-03-01T06:32:42;12.85;;;7.50;;
48526;SDS011;34317;51.660;5.824;2023-03-01T06:35:10;13.88;;;6.85;;
48526;SDS011;34317;51.660;5.824;2023-03-01T06:37:38;12.13;;;7.03;;
48526;SDS011;34317;51.660;5.824;2023-03-01T06:40:06;11.00;;;6.72;;
48526;SDS011;34317;51.660;5.824;2023-03-01T06:42:35;12.18;;;7.32;;
48526;SDS011;34317;51.660;5.824;2023-03-01T06:45:03;12.02;;;7.35;;
48526;SDS011;34317;51.660;5.824;2023-03-01T06:47:32;12.65;;;7.47;;
48526;SDS011;34317;51.660;5.824;2023-03-01T06:50:00;13.30;;;7.68;;
48526;SDS011;34317;51.660;5.824;2023-03-01T06:52:28;16.95;;;7.82;;
48526;SDS011;34317;51.660;5.824;2023-03-01T06:54:56;11.70;;;7.15;;
48526;SDS011;34317;51.660;5.824;2023-03-01T06:57:23;12.38;;;6.82;;
48526;SDS011;34317;51.660;5.824;2023-03-01T06:59:50;12.00;;;7.07;;
48526;SDS011;34317;51.660;5.824;2023-03-01T07:02:17;13.00;;;7.20;;
48526;SDS011;34317;51.660;5.824;2023-03-01T07:04:44;12.90;;;6.95;;
48526;SDS011;34317;51.660;5.824;2023-03-01T07:07:12;10.95;;;6.72;;
48526;SDS011;34317;51.660;5.824;2023-03-01T07:09:39;12.70;;;7.40;;
48526;SDS011;34317;51.660;5.824;2023-03-01T07:12:06;13.75;;;7.50;;
48526;SDS011;34317;51.660;5.824;2023-03-01T07:14:33;13.52;;;7.25;;
48526;SDS011;34317;51.660;5.824;2023-03-01T07:17:00;13.55;;;7.38;;
48526;SDS011;34317;51.660;5.824;2023-03-01T07:19:27;13.65;;;7.50;;
48526;SDS011;34317;51.660;5.824;2023-03-01T07:21:54;14.10;;;7.13;;
48526;SDS011;34317;51.660;5.824;2023-03-01T07:24:22;13.20;;;7.13;;
48526;SDS011;34317;51.660;5.824;2023-03-01T07:26:50;12.10;;;6.30;;
48526;SDS011;34317;51.660;5.824;2023-03-01T07:29:18;11.18;;;6.72;;
48526;SDS011;34317;51.660;5.824;2023-03-01T07:31:45;12.80;;;7.10;;
48526;SDS011;34317;51.660;5.824;2023-03-01T07:34:12;14.10;;;7.82;;
48526;SDS011;34317;51.660;5.824;2023-03-01T07:36:39;14.05;;;7.50;;
48526;SDS011;34317;51.660;5.824;2023-03-01T07:39:10;16.30;;;8.15;;
48526;SDS011;34317;51.660;5.824;2023-03-01T07:41:38;14.20;;;7.38;;
48526;SDS011;34317;51.660;5.824;2023-03-01T07:44:05;12.30;;;6.95;;
48526;SDS011;34317;51.660;5.824;2023-03-01T07:46:32;11.27;;;6.50;;
48526;SDS011;34317;51.660;5.824;2023-03-01T07:48:59;10.02;;;6.43;;
48526;SDS011;34317;51.660;5.824;2023-03-01T07:51:27;10.68;;;6.68;;
48526;SDS011;34317;51.660;5.824;2023-03-01T07:53:54;13.30;;;6.40;;
48526;SDS011;34317;51.660;5.824;2023-03-01T07:56:21;12.15;;;6.65;;
48526;SDS011;34317;51.660;5.824;2023-03-01T07:58:48;12.30;;;6.47;;
48526;SDS011;34317;51.660;5.824;2023-03-01T08:01:18;12.20;;;6.78;;
48526;SDS011;34317;51.660;5.824;2023-03-01T08:03:46;15.95;;;7.40;;
48526;SDS011;34317;51.660;5.824;2023-03-01T08:06:16;17.55;;;7.10;;
48526;SDS011;34317;51.660;5.824;2023-03-01T08:08:44;14.68;;;6.82;;
48526;SDS011;34317;51.660;5.824;2023-03-01T08:11:12;13.85;;;7.15;;
48526;SDS011;34317;51.660;5.824;2023-03-01T08:13:41;12.25;;;7.22;;
48526;SDS011;34317;51.660;5.824;2023-03-01T08:16:10;13.00;;;7.57;;
48526;SDS011;34317;51.660;5.824;2023-03-01T08:18:39;11.27;;;6.82;;
48526;SDS011;34317;51.660;5.824;2023-03-01T08:21:11;12.75;;;7.10;;
48526;SDS011;34317;51.660;5.824;2023-03-01T08:23:40;12.98;;;6.93;;
48526;SDS011;34317;51.660;5.824;2023-03-01T08:26:16;13.48;;;7.00;;
48526;SDS011;34317;51.660;5.824;2023-03-01T08:28:45;13.90;;;7.25;;
48526;SDS011;34317;51.660;5.824;2023-03-01T08:31:15;13.65;;;6.28;;
48526;SDS011;34317;51.660;5.824;2023-03-01T08:33:48;12.07;;;6.63;;
48526;SDS011;34317;51.660;5.824;2023-03-01T08:36:25;10.05;;;5.95;;
48526;SDS011;34317;51.660;5.824;2023-03-01T08:38:55;12.82;;;6.50;;
48526;SDS011;34317;51.660;5.824;2023-03-01T08:41:22;12.35;;;6.22;;
48526;SDS011;34317;51.660;5.824;2023-03-01T08:43:50;12.25;;;6.82;;
48526;SDS011;34317;51.660;5.824;2023-03-01T08:46:17;8.60;;;5.97;;
48526;SDS011;34317;51.660;5.824;2023-03-01T08:48:44;10.27;;;6.15;;
48526;SDS011;34317;51.660;5.824;2023-03-01T08:51:13;9.43;;;5.88;;
48526;SDS011;34317;51.660;5.824;2023-03-01T08:53:43;11.10;;;6.10;;
48526;SDS011;34317;51.660;5.824;2023-03-01T08:56:11;10.65;;;6.03;;
48526;SDS011;34317;51.660;5.824;2023-03-01T08:58:39;9.95;;;5.68;;
48526;SDS011;34317;51.660;5.824;2023-03-01T09:01:07;11.95;;;6.00;;
48526;SDS011;34317;51.660;5.824;2023-03-01T09:03:38;8.60;;;5.80;;
48526;SDS011;34317;51.660;5.824;2023-03-01T09:06:05;9.00;;;5.57;;
48526;SDS011;34317;51.660;5.824;2023-03-01T09:08:35;9.23;;;5.38;;
48526;SDS011;34317;51.660;5.824;2023-03-01T09:11:03;12.27;;;5.35;;
48526;SDS011;34317;51.660;5.824;2023-03-01T09:13:32;9.02;;;5.78;;
48526;SDS011;34317;51.660;5.824;2023-03-01T09:16:03;9.90;;;5.30;;
48526;SDS011;34317;51.660;5.824;2023-03-01T09:18:32;10.05;;;5.30;;
48526;SDS011;34317;51.660;5.824;2023-03-01T09:21:05;9.90;;;5.80;;
48526;SDS011;34317;51.660;5.824;2023-03-01T09:23:37;9.80;;;5.15;;
48526;SDS011;34317;51.660;5.824;2023-03-01T09:26:13;10.23;;;5.40;;
48526;SDS011;34317;51.660;5.824;2023-03-01T09:28:46;10.90;;;5.30;;
48526;SDS011;34317;51.660;5.824;2023-03-01T09:31:13;8.32;;;5.22;;
48526;SDS011;34317;51.660;5.824;2023-03-01T09:33:42;9.15;;;5.05;;
48526;SDS011;34317;51.660;5.824;2023-03-01T09:36:13;7.88;;;4.78;;
48526;SDS011;34317;51.660;5.824;2023-03-01T09:38:43;7.88;;;5.00;;
48526;SDS011;34317;51.660;5.824;2023-03-01T09:43:47;8.30;;;5.05;;
48526;SDS011;34317;51.660;5.824;2023-03-01T09:46:23;9.73;;;5.15;;
48526;SDS011;34317;51.660;5.824;2023-03-01T09:49:09;8.00;;;4.97;;
48526;SDS011;34317;51.660;5.824;2023-03-01T09:51:41;9.43;;;5.00;;
48526;SDS011;34317;51.660;5.824;2023-03-01T09:54:08;9.52;;;5.13;;
48526;SDS011;34317;51.660;5.824;2023-03-01T10:01:49;9.48;;;4.93;;
48526;SDS011;34317;51.660;5.824;2023-03-01T10:04:39;8.95;;;5.20;;
48526;SDS011;34317;51.660;5.824;2023-03-01T10:07:16;7.90;;;5.28;;
48526;SDS011;34317;51.660;5.824;2023-03-01T10:09:57;14.13;;;5.22;;
48526;SDS011;34317;51.660;5.824;2023-03-01T10:12:30;9.10;;;5.18;;
48526;SDS011;34317;51.660;5.824;2023-03-01T10:15:06;11.50;;;5.63;;
48526;SDS011;34317;51.660;5.824;2023-03-01T10:18:05;12.07;;;5.47;;
48526;SDS011;34317;51.660;5.824;2023-03-01T10:20:43;9.38;;;5.05;;
48526;SDS011;34317;51.660;5.824;2023-03-01T10:23:15;9.65;;;5.70;;
48526;SDS011;34317;51.660;5.824;2023-03-01T10:25:44;11.13;;;5.35;;
48526;SDS011;34317;51.660;5.824;2023-03-01T10:28:31;10.48;;;5.47;;
48526;SDS011;34317;51.660;5.824;2023-03-01T10:31:21;9.68;;;5.28;;
48526;SDS011;34317;51.660;5.824;2023-03-01T10:33:56;9.25;;;5.05;;
48526;SDS011;34317;51.660;5.824;2023-03-01T10:36:25;7.18;;;5.13;;
48526;SDS011;34317;51.660;5.824;2023-03-01T10:38:53;9.55;;;5.32;;
48526;SDS011;34317;51.660;5.824;2023-03-01T10:41:24;10.10;;;5.30;;
48526;SDS011;34317;51.660;5.824;2023-03-01T10:43:57;7.57;;;5.18;;
48526;SDS011;34317;51.660;5.824;2023-03-01T10:46:34;8.32;;;5.22;;
48526;SDS011;34317;51.660;5.824;2023-03-01T10:49:20;9.85;;;5.00;;
48526;SDS011;34317;51.660;5.824;2023-03-01T10:51:50;8.73;;;5.13;;
48526;SDS011;34317;51.660;5.824;2023-03-01T10:59:21;7.75;;;4.82;;
48526;SDS011;34317;51.660;5.824;2023-03-01T11:05:03;8.93;;;4.97;;
48526;SDS011;34317;51.660;5.824;2023-03-01T11:07:46;8.65;;;5.05;;
48526;SDS011;34317;51.660;5.824;2023-03-01T11:10:35;9.07;;;4.53;;
48526;SDS011;34317;51.660;5.824;2023-03-01T11:15:58;7.90;;;4.85;;
48526;SDS011;34317;51.660;5.824;2023-03-01T11:18:27;8.73;;;5.45;;
48526;SDS011;34317;51.660;5.824;2023-03-01T11:21:14;8.20;;;4.85;;
48526;SDS011;34317;51.660;5.824;2023-03-01T11:23:42;8.45;;;4.97;;
48526;SDS011;34317;51.660;5.824;2023-03-01T11:26:13;9.43;;;4.95;;
48526;SDS011;34317;51.660;5.824;2023-03-01T11:28:44;7.72;;;4.63;;
48526;SDS011;34317;51.660;5.824;2023-03-01T11:31:17;7.47;;;4.90;;
48526;SDS011;34317;51.660;5.824;2023-03-01T11:36:44;11.48;;;5.43;;
48526;SDS011;34317;51.660;5.824;2023-03-01T11:39:23;8.30;;;5.00;;
48526;SDS011;34317;51.660;5.824;2023-03-01T11:42:11;9.05;;;5.20;;
48526;SDS011;34317;51.660;5.824;2023-03-01T11:44:46;8.75;;;4.90;;
48526;SDS011;34317;51.660;5.824;2023-03-01T11:47:20;8.50;;;5.25;;
48526;SDS011;34317;51.660;5.824;2023-03-01T11:50:05;9.93;;;5.47;;
48526;SDS011;34317;51.660;5.824;2023-03-01T11:52:48;9.02;;;4.95;;
48526;SDS011;34317;51.660;5.824;2023-03-01T11:55:36;8.55;;;4.80;;
48526;SDS011;34317;51.660;5.824;2023-03-01T11:58:37;7.80;;;5.03;;
48526;SDS011;34317;51.660;5.824;2023-03-01T12:04:01;8.93;;;5.15;;
48526;SDS011;34317;51.660;5.824;2023-03-01T12:09:17;7.55;;;4.50;;
48526;SDS011;34317;51.660;5.824;2023-03-01T12:12:40;10.10;;;5.03;;
48526;SDS011;34317;51.660;5.824;2023-03-01T12:21:48;8.90;;;4.57;;
48526;SDS011;34317;51.660;5.824;2023-03-01T12:30:02;7.90;;;4.75;;
48526;SDS011;34317;51.660;5.824;2023-03-01T12:38:33;8.18;;;4.90;;
48526;SDS011;34317;51.660;5.824;2023-03-01T12:41:13;7.43;;;4.43;;
48526;SDS011;34317;51.660;5.824;2023-03-01T12:43:58;8.85;;;4.57;;
48526;SDS011;34317;51.660;5.824;2023-03-01T12:51:53;6.80;;;4.03;;
48526;SDS011;34317;51.660;5.824;2023-03-01T12:54:28;8.65;;;4.97;;
48526;SDS011;34317;51.660;5.824;2023-03-01T12:56:59;5.82;;;3.95;;
48526;SDS011;34317;51.660;5.824;2023-03-01T13:00:02;7.45;;;4.47;;
48526;SDS011;34317;51.660;5.824;2023-03-01T13:08:26;5.63;;;3.88;;
48526;SDS011;34317;51.660;5.824;2023-03-01T13:11:03;10.07;;;4.60;;
48526;SDS011;34317;51.660;5.824;2023-03-01T13:13:33;8.68;;;4.93;;
48526;SDS011;34317;51.660;5.824;2023-03-01T13:16:19;8.75;;;4.85;;
48526;SDS011;34317;51.660;5.824;2023-03-01T13:19:06;7.50;;;4.57;;
48526;SDS011;34317;51.660;5.824;2023-03-01T13:21:39;8.68;;;4.10;;
48526;SDS011;34317;51.660;5.824;2023-03-01T13:24:23;9.73;;;4.32;;
48526;SDS011;34317;51.660;5.824;2023-03-01T13:27:21;7.80;;;4.45;;
48526;SDS011;34317;51.660;5.824;2023-03-01T13:29:57;7.65;;;4.05;;
48526;SDS011;34317;51.660;5.824;2023-03-01T13:32:33;6.95;;;4.00;;
48526;SDS011;34317;51.660;5.824;2023-03-01T13:37:41;7.25;;;4.35;;
48526;SDS011;34317;51.660;5.824;2023-03-01T13:48:11;9.63;;;4.28;;
48526;SDS011;34317;51.660;5.824;2023-03-01T13:50:47;7.35;;;4.35;;
48526;SDS011;34317;51.660;5.824;2023-03-01T13:53:18;9.70;;;4.35;;
48526;SDS011;34317;51.660;5.824;2023-03-01T13:55:58;6.75;;;4.60;;
48526;SDS011;34317;51.660;5.824;2023-03-01T13:58:29;9.05;;;4.28;;
48526;SDS011;34317;51.660;5.824;2023-03-01T14:01:00;7.80;;;4.63;;
48526;SDS011;34317;51.660;5.824;2023-03-01T14:03:32;8.95;;;4.63;;
48526;SDS011;34317;51.660;5.824;2023-03-01T14:06:13;7.75;;;4.55;;
48526;SDS011;34317;51.660;5.824;2023-03-01T14:08:48;7.88;;;4.28;;
48526;SDS011;34317;51.660;5.824;2023-03-01T14:11:35;6.68;;;4.00;;
48526;SDS011;34317;51.660;5.824;2023-03-01T14:19:25;7.28;;;4.97;;
48526;SDS011;34317;51.660;5.824;2023-03-01T14:22:11;6.63;;;4.75;;
48526;SDS011;34317;51.660;5.824;2023-03-01T14:25:05;8.75;;;4.60;;
48526;SDS011;34317;51.660;5.824;2023-03-01T14:27:43;8.85;;;5.82;;
48526;SDS011;34317;51.660;5.824;2023-03-01T14:32:53;10.73;;;6.93;;
48526;SDS011;34317;51.660;5.824;2023-03-01T14:35:25;11.57;;;7.00;;
48526;SDS011;34317;51.660;5.824;2023-03-01T14:38:01;11.23;;;7.18;;
48526;SDS011;34317;51.660;5.824;2023-03-01T14:40:34;11.43;;;6.72;;
48526;SDS011;34317;51.660;5.824;2023-03-01T14:43:08;11.98;;;7.35;;
48526;SDS011;34317;51.660;5.824;2023-03-01T14:45:37;12.02;;;7.35;;
48526;SDS011;34317;51.660;5.824;2023-03-01T14:48:05;10.27;;;7.28;;
48526;SDS011;34317;51.660;5.824;2023-03-01T14:50:34;12.73;;;7.28;;
48526;SDS011;34317;51.660;5.824;2023-03-01T14:53:07;11.27;;;7.20;;
48526;SDS011;34317;51.660;5.824;2023-03-01T14:55:44;12.20;;;7.18;;
48526;SDS011;34317;51.660;5.824;2023-03-01T14:58:16;10.93;;;7.38;;
48526;SDS011;34317;51.660;5.824;2023-03-01T15:00:48;10.55;;;7.30;;
48526;SDS011;34317;51.660;5.824;2023-03-01T15:03:34;11.07;;;7.45;;
48526;SDS011;34317;51.660;5.824;2023-03-01T15:06:07;10.93;;;8.10;;
48526;SDS011;34317;51.660;5.824;2023-03-01T15:08:35;10.35;;;6.95;;
48526;SDS011;34317;51.660;5.824;2023-03-01T15:11:05;12.00;;;7.72;;
48526;SDS011;34317;51.660;5.824;2023-03-01T15:13:45;10.32;;;7.40;;
48526;SDS011;34317;51.660;5.824;2023-03-01T15:16:15;11.55;;;7.35;;
48526;SDS011;34317;51.660;5.824;2023-03-01T15:19:05;10.98;;;6.85;;
48526;SDS011;34317;51.660;5.824;2023-03-01T15:21:34;13.20;;;7.78;;
48526;SDS011;34317;51.660;5.824;2023-03-01T15:29:22;11.88;;;7.40;;
48526;SDS011;34317;51.660;5.824;2023-03-01T15:32:01;9.95;;;6.82;;
48526;SDS011;34317;51.660;5.824;2023-03-01T15:34:33;13.30;;;7.65;;
48526;SDS011;34317;51.660;5.824;2023-03-01T15:37:04;9.93;;;6.55;;
48526;SDS011;34317;51.660;5.824;2023-03-01T15:39:37;11.13;;;6.95;;
48526;SDS011;34317;51.660;5.824;2023-03-01T15:45:07;10.35;;;7.05;;
48526;SDS011;34317;51.660;5.824;2023-03-01T15:47:51;9.80;;;6.65;;
48526;SDS011;34317;51.660;5.824;2023-03-01T15:52:56;10.23;;;7.05;;
48526;SDS011;34317;51.660;5.824;2023-03-01T15:55:26;9.50;;;6.25;;
48526;SDS011;34317;51.660;5.824;2023-03-01T15:58:00;10.65;;;7.05;;
48526;SDS011;34317;51.660;5.824;2023-03-01T16:00:39;11.23;;;6.95;;
48526;SDS011;34317;51.660;5.824;2023-03-01T16:03:25;10.30;;;6.97;;
48526;SDS011;34317;51.660;5.824;2023-03-01T16:05:53;8.68;;;6.57;;
48526;SDS011;34317;51.660;5.824;2023-03-01T16:08:20;10.57;;;6.70;;
48526;SDS011;34317;51.660;5.824;2023-03-01T16:10:48;10.77;;;6.57;;
48526;SDS011;34317;51.660;5.824;2023-03-01T16:13:17;11.20;;;6.85;;
48526;SDS011;34317;51.660;5.824;2023-03-01T16:15:44;13.07;;;7.18;;
48526;SDS011;34317;51.660;5.824;2023-03-01T16:18:12;9.77;;;6.53;;
48526;SDS011;34317;51.660;5.824;2023-03-01T16:20:39;9.77;;;6.65;;
48526;SDS011;34317;51.660;5.824;2023-03-01T16:23:07;10.75;;;6.30;;
48526;SDS011;34317;51.660;5.824;2023-03-01T16:25:37;9.02;;;6.10;;
48526;SDS011;34317;51.660;5.824;2023-03-01T16:28:04;10.00;;;6.03;;
48526;SDS011;34317;51.660;5.824;2023-03-01T16:30:36;9.60;;;5.88;;
48526;SDS011;34317;51.660;5.824;2023-03-01T16:33:06;9.80;;;6.50;;
48526;SDS011;34317;51.660;5.824;2023-03-01T16:35:50;7.47;;;5.72;;
48526;SDS011;34317;51.660;5.824;2023-03-01T16:38:17;8.68;;;6.18;;
48526;SDS011;34317;51.660;5.824;2023-03-01T16:40:48;9.65;;;5.97;;
48526;SDS011;34317;51.660;5.824;2023-03-01T16:43:17;9.98;;;5.72;;
48526;SDS011;34317;51.660;5.824;2023-03-01T16:45:44;9.90;;;6.20;;